createdAt,value
2018-10-19T00:01:47.577Z,82.30
2018-10-19T00:04:19.391Z,82.30
2018-10-19T00:06:51.070Z,82.70
2018-10-19T00:09:22.893Z,82.70
2018-10-19T00:11:54.677Z,82.70
2018-10-19T00:14:26.438Z,82.80
2018-10-19T00:16:58.197Z,82.80
2018-10-19T00:19:30.047Z,82.90
2018-10-19T00:22:01.717Z,83.10
2018-10-19T00:24:33.572Z,83.40
2018-10-19T00:27:05.443Z,83.60
2018-10-19T00:29:37.489Z,83.80
2018-10-19T00:32:09.351Z,83.30
2018-10-19T00:34:41.121Z,83.20
2018-10-19T00:37:12.989Z,83.30
2018-10-19T00:39:44.817Z,84.00
2018-10-19T00:42:16.710Z,83.60
2018-10-19T00:44:48.352Z,83.60
2018-10-19T00:47:20.121Z,83.70
2018-10-19T00:49:51.869Z,83.50
2018-10-19T00:52:23.513Z,83.40
2018-10-19T00:54:55.266Z,83.50
2018-10-19T00:57:27.031Z,83.60
2018-10-19T00:59:58.716Z,84.10
2018-10-19T01:02:30.546Z,84.00
2018-10-19T01:05:02.420Z,84.30
2018-10-19T01:07:34.399Z,84.00
2018-10-19T01:10:06.471Z,84.40
2018-10-19T01:12:38.206Z,84.60
2018-10-19T01:15:09.970Z,84.60
2018-10-19T01:17:41.721Z,85.00
2018-10-19T01:20:13.474Z,85.60
2018-10-19T01:22:45.410Z,85.40
2018-10-19T01:25:17.218Z,85.30
2018-10-19T01:27:49.047Z,85.40
2018-10-19T01:30:20.944Z,86.50
2018-10-19T01:32:52.711Z,87.70
2018-10-19T01:35:24.538Z,88.50
2018-10-19T01:37:56.425Z,88.20
2018-10-19T01:40:28.172Z,88.40
2018-10-19T01:42:59.933Z,88.40
2018-10-19T01:45:31.883Z,88.50
2018-10-19T01:48:03.852Z,88.40
2018-10-19T01:50:35.709Z,87.90
2018-10-19T01:53:07.607Z,87.50
2018-10-19T01:55:39.428Z,87.30
2018-10-19T01:58:11.187Z,87.20
2018-10-19T02:00:42.998Z,87.40
2018-10-19T02:03:14.936Z,87.50
2018-10-19T02:05:46.798Z,86.00
2018-10-19T02:08:18.601Z,86.90
2018-10-19T02:10:50.400Z,87.20
2018-10-19T02:13:22.184Z,86.50
2018-10-19T02:15:54.145Z,85.20
2018-10-19T02:18:25.993Z,84.10
2018-10-19T02:20:57.789Z,84.10
2018-10-19T02:23:29.614Z,85.30
2018-10-19T02:26:01.272Z,86.60
2018-10-19T02:28:32.847Z,87.60
2018-10-19T02:31:04.716Z,87.20
2018-10-19T02:33:36.642Z,86.50
2018-10-19T02:36:08.547Z,85.30
2018-10-19T02:38:40.387Z,85.20
2018-10-19T02:41:12.198Z,85.00
2018-10-19T02:43:43.993Z,85.50
2018-10-19T02:46:15.946Z,86.20
2018-10-19T02:48:47.700Z,87.00
2018-10-19T02:51:19.445Z,86.50
2018-10-19T02:53:51.244Z,86.30
2018-10-19T02:56:22.998Z,86.00
2018-10-19T02:58:54.792Z,86.10
2018-10-19T03:01:26.615Z,86.00
2018-10-19T03:03:58.360Z,86.20
2018-10-19T03:06:30.137Z,85.50
2018-10-19T03:09:01.945Z,86.00
2018-10-19T03:11:33.710Z,86.20
2018-10-19T03:14:05.562Z,87.20
2018-10-19T03:16:37.379Z,87.20
2018-10-19T03:19:09.344Z,87.20
2018-10-19T03:21:41.114Z,87.30
2018-10-19T03:24:12.927Z,87.30
2018-10-19T03:26:44.687Z,87.30
2018-10-19T03:29:16.412Z,88.00
2018-10-19T03:31:48.340Z,88.00
2018-10-19T03:34:20.079Z,88.50
2018-10-19T03:36:51.746Z,88.90
2018-10-19T03:39:23.404Z,89.20
2018-10-19T03:41:55.254Z,89.00
2018-10-19T03:44:27.016Z,89.00
2018-10-19T03:46:58.766Z,88.90
2018-10-19T03:49:30.627Z,88.60
2018-10-19T03:52:02.493Z,87.20
2018-10-19T03:54:34.158Z,86.30
2018-10-19T03:57:06.649Z,86.00
2018-10-19T03:59:38.394Z,85.90
2018-10-19T04:02:10.132Z,86.50
2018-10-19T04:04:41.996Z,86.90
2018-10-19T04:07:13.889Z,86.80
2018-10-19T04:09:45.531Z,87.10
2018-10-19T04:12:17.305Z,87.40
2018-10-19T04:14:48.933Z,87.70
2018-10-19T04:17:20.614Z,89.30
2018-10-19T04:19:52.345Z,89.60
2018-10-19T04:22:24.013Z,90.20
2018-10-19T04:24:55.757Z,90.00
2018-10-19T04:27:27.567Z,89.60
2018-10-19T04:29:59.400Z,90.00
2018-10-19T04:32:31.142Z,89.60
2018-10-19T04:35:03.100Z,89.80
2018-10-19T04:37:34.785Z,89.60
2018-10-19T04:40:10.078Z,88.80
2018-10-19T04:42:41.775Z,87.70
2018-10-19T04:45:13.474Z,87.70
2018-10-19T04:47:45.375Z,87.50
2018-10-19T04:50:17.266Z,89.00
2018-10-19T04:52:49.214Z,89.20
2018-10-19T04:55:22.469Z,88.00
2018-10-19T04:57:54.271Z,88.50
2018-10-19T05:00:26.028Z,88.70
2018-10-19T05:02:57.975Z,89.70
2018-10-19T05:05:30.052Z,90.70
2018-10-19T05:08:01.814Z,92.20
2018-10-19T05:10:33.699Z,92.90
2018-10-19T05:13:05.417Z,93.00
2018-10-19T05:15:37.191Z,92.80
2018-10-19T05:18:08.974Z,91.10
2018-10-19T05:20:40.620Z,90.80
2018-10-19T05:23:12.405Z,91.60
2018-10-19T05:25:44.018Z,91.90
2018-10-19T05:28:15.696Z,92.30
2018-10-19T05:30:47.566Z,92.40
2018-10-19T05:33:19.213Z,92.10
2018-10-19T05:35:50.980Z,91.70
2018-10-19T05:38:22.700Z,91.10
2018-10-19T05:40:54.446Z,91.00
2018-10-19T05:43:26.276Z,90.70
2018-10-19T05:45:57.988Z,90.70
2018-10-19T05:48:29.777Z,90.40
2018-10-19T05:51:01.631Z,90.50
2018-10-19T05:53:33.462Z,90.50
2018-10-19T05:56:05.488Z,90.50
2018-10-19T05:58:37.530Z,90.30
2018-10-19T06:01:09.379Z,90.40
2018-10-19T06:03:41.233Z,90.50
2018-10-19T06:06:13.084Z,90.20
2018-10-19T06:08:44.758Z,90.20
2018-10-19T06:11:16.479Z,90.20
2018-10-19T06:13:48.366Z,90.60
2018-10-19T06:16:20.132Z,90.60
2018-10-19T06:18:51.792Z,90.70
2018-10-19T06:21:23.664Z,90.70
2018-10-19T06:23:55.289Z,90.80
2018-10-19T06:26:27.234Z,90.90
2018-10-19T06:28:59.019Z,90.60
2018-10-19T06:31:30.876Z,90.40
2018-10-19T06:34:02.663Z,90.50
2018-10-19T06:39:18.858Z,90.50
2018-10-19T06:41:50.965Z,90.70
2018-10-19T06:44:22.801Z,90.40
2018-10-19T06:46:54.467Z,90.70
2018-10-19T06:49:26.291Z,90.50
2018-10-19T06:51:58.188Z,90.60
2018-10-19T06:54:29.904Z,90.90
2018-10-19T06:57:01.580Z,91.00
2018-10-19T06:59:33.514Z,90.80
2018-10-19T07:02:05.300Z,90.50
2018-10-19T07:04:37.086Z,89.90
2018-10-19T07:07:08.946Z,89.30
2018-10-19T07:09:40.791Z,89.50
2018-10-19T07:12:12.613Z,88.90
2018-10-19T07:14:44.301Z,88.40
2018-10-19T07:17:16.108Z,87.90
2018-10-19T07:19:48.046Z,87.30
2018-10-19T07:22:19.678Z,86.80
2018-10-19T07:24:51.510Z,85.80
2018-10-19T07:27:23.289Z,85.40
2018-10-19T07:29:55.006Z,84.40
2018-10-19T07:32:26.829Z,83.80
2018-10-19T07:34:58.852Z,83.20
2018-10-19T07:37:30.669Z,82.70
2018-10-19T07:40:02.306Z,82.10
2018-10-19T07:42:34.212Z,81.70
2018-10-19T07:45:06.563Z,81.30
2018-10-19T07:47:38.440Z,81.00
2018-10-19T07:50:10.875Z,80.60
2018-10-19T07:52:42.653Z,80.30
2018-10-19T07:55:14.396Z,79.90
2018-10-19T07:57:46.169Z,79.60
2018-10-19T08:00:17.844Z,79.20
2018-10-19T08:02:49.674Z,78.80
2018-10-19T08:05:21.519Z,78.40
2018-10-19T08:07:53.335Z,77.40
2018-10-19T08:10:25.076Z,76.70
2018-10-19T08:12:56.823Z,75.90
2018-10-19T08:15:28.562Z,74.60
2018-10-19T08:18:00.370Z,73.90
2018-10-19T08:20:32.104Z,71.80
2018-10-19T08:23:03.912Z,70.30
2018-10-19T08:25:35.615Z,70.50
2018-10-19T08:28:07.578Z,69.40
2018-10-19T08:30:39.448Z,68.70
2018-10-19T08:33:11.228Z,67.70
2018-10-19T08:35:43.061Z,67.40
2018-10-19T08:38:14.938Z,66.70
2018-10-19T08:40:46.813Z,65.50
2018-10-19T08:43:18.717Z,66.00
2018-10-19T08:45:50.595Z,65.30
2018-10-19T08:48:22.360Z,64.10
2018-10-19T08:50:54.036Z,62.40
2018-10-19T08:53:25.967Z,62.30
2018-10-19T08:55:57.764Z,61.40
2018-10-19T08:58:29.607Z,61.10
2018-10-19T09:01:01.471Z,59.50
2018-10-19T09:03:33.485Z,59.20
2018-10-19T09:06:05.475Z,58.40
2018-10-19T09:08:37.259Z,57.30
2018-10-19T09:11:09.061Z,55.40
2018-10-19T09:13:41.067Z,53.70
2018-10-19T09:16:12.738Z,52.00
2018-10-19T09:18:44.502Z,49.10
2018-10-19T09:21:16.249Z,47.40
2018-10-19T09:23:47.902Z,46.60
2018-10-19T09:26:19.771Z,45.00
2018-10-19T09:28:51.540Z,44.10
2018-10-19T09:31:23.184Z,44.70
2018-10-19T09:33:54.851Z,44.50
2018-10-19T09:36:26.801Z,44.50
2018-10-19T09:38:58.623Z,44.70
2018-10-19T09:41:30.325Z,44.70
2018-10-19T09:44:01.936Z,46.40
2018-10-19T09:46:33.760Z,46.80
2018-10-19T09:49:05.622Z,47.20
2018-10-19T09:51:38.031Z,46.50
2018-10-19T09:54:10.467Z,45.90
2018-10-19T09:56:42.374Z,46.50
2018-10-19T09:59:14.313Z,46.60
2018-10-19T10:01:46.299Z,47.30
2018-10-19T10:04:18.096Z,48.70
2018-10-19T10:06:49.778Z,48.70
2018-10-19T10:09:21.636Z,48.80
2018-10-19T10:11:53.494Z,48.80
2018-10-19T10:14:25.250Z,49.20
2018-10-19T10:16:57.105Z,49.10
2018-10-19T10:19:29.055Z,48.70
2018-10-19T10:22:00.755Z,48.30
2018-10-19T10:24:32.495Z,47.90
2018-10-19T10:27:04.357Z,47.20
2018-10-19T10:29:35.997Z,47.30
2018-10-19T10:32:07.669Z,46.40
2018-10-19T10:34:39.420Z,45.50
2018-10-19T10:37:11.338Z,45.30
2018-10-19T10:39:43.148Z,45.10
2018-10-19T10:42:15.108Z,44.80
2018-10-19T10:44:46.843Z,44.30
2018-10-19T10:47:18.621Z,44.30
2018-10-19T10:49:50.467Z,42.60
2018-10-19T10:52:22.332Z,41.30
2018-10-19T10:54:54.016Z,40.80
2018-10-19T10:57:26.047Z,40.10
2018-10-19T10:59:57.934Z,40.30
2018-10-19T11:02:29.683Z,38.60
2018-10-19T11:05:01.438Z,37.80
2018-10-19T11:07:33.485Z,38.10
2018-10-19T11:10:05.352Z,37.60
2018-10-19T11:12:37.152Z,37.10
2018-10-19T11:15:09.818Z,38.40
2018-10-19T11:17:41.466Z,38.90
2018-10-19T11:20:13.310Z,39.70
2018-10-19T11:22:45.097Z,39.10
2018-10-19T11:25:16.990Z,38.50
2018-10-19T11:27:48.931Z,39.20
2018-10-19T11:30:20.790Z,37.70
2018-10-19T11:32:52.543Z,37.30
2018-10-19T11:35:24.279Z,37.50
2018-10-19T11:37:55.943Z,36.30
2018-10-19T11:40:35.094Z,36.80
2018-10-19T11:43:07.238Z,37.00
2018-10-19T11:45:39.759Z,37.50
2018-10-19T11:48:11.593Z,37.00
2018-10-19T11:50:43.458Z,36.40
2018-10-19T11:53:15.217Z,36.50
2018-10-19T11:55:46.960Z,35.90
2018-10-19T11:58:18.829Z,36.10
2018-10-19T12:00:50.669Z,36.10
2018-10-19T12:03:22.634Z,36.20
2018-10-19T12:05:54.294Z,37.30
2018-10-19T12:08:25.967Z,38.30
2018-10-19T12:10:57.745Z,40.00
2018-10-19T12:13:29.597Z,42.80
2018-10-19T12:16:01.255Z,43.70
2018-10-19T12:18:33.110Z,45.20
2018-10-19T12:21:04.917Z,46.00
2018-10-19T12:23:36.828Z,46.70
2018-10-19T12:26:08.855Z,46.10
2018-10-19T12:28:40.734Z,47.00
2018-10-19T12:31:12.519Z,45.40
2018-10-19T12:33:44.155Z,44.50
2018-10-19T12:36:15.967Z,43.60
2018-10-19T12:38:47.670Z,42.50
2018-10-19T12:41:19.407Z,41.70
2018-10-19T12:43:51.295Z,40.50
2018-10-19T12:46:41.204Z,39.80
2018-10-19T12:49:14.739Z,38.50
2018-10-19T12:51:46.635Z,37.30
2018-10-19T12:54:18.869Z,37.40
2018-10-19T12:56:50.721Z,36.80
2018-10-19T12:59:22.436Z,36.10
2018-10-19T13:01:54.181Z,36.20
2018-10-19T13:04:26.041Z,35.80
2018-10-19T13:06:57.866Z,34.90
2018-10-19T13:09:29.693Z,34.20
2018-10-19T13:12:01.518Z,33.40
2018-10-19T13:14:33.305Z,33.40
2018-10-19T13:17:05.264Z,32.40
2018-10-19T13:19:37.113Z,32.00
2018-10-19T13:22:09.071Z,31.90
2018-10-19T13:24:40.847Z,32.30
2018-10-19T13:27:12.723Z,33.70
2018-10-19T13:29:44.480Z,34.20
2018-10-19T13:32:16.236Z,33.90
2018-10-19T13:34:47.877Z,33.50
2018-10-19T13:37:19.762Z,34.30
2018-10-19T13:39:51.397Z,33.40
2018-10-19T13:42:23.135Z,33.20
2018-10-19T13:44:54.941Z,33.30
2018-10-19T13:47:26.706Z,33.40
2018-10-19T13:49:58.546Z,33.50
2018-10-19T13:52:30.375Z,34.10
2018-10-19T13:55:02.039Z,34.80
2018-10-19T13:57:34.013Z,35.00
2018-10-19T14:00:05.915Z,34.60
2018-10-19T14:02:37.852Z,35.00
2018-10-19T14:05:10.078Z,35.40
2018-10-19T14:07:41.856Z,36.20
2018-10-19T14:10:13.645Z,37.50
2018-10-19T14:12:45.299Z,38.50
2018-10-19T14:15:17.131Z,39.80
2018-10-19T14:17:48.811Z,40.40
2018-10-19T14:20:20.596Z,40.70
2018-10-19T14:22:52.703Z,41.50
2018-10-19T14:25:24.411Z,42.50
2018-10-19T14:27:56.160Z,43.90
2018-10-19T14:30:27.990Z,44.90
2018-10-19T14:32:59.698Z,46.20
2018-10-19T14:35:31.543Z,47.10
2018-10-19T14:38:03.480Z,48.10
2018-10-19T14:40:35.565Z,49.10
2018-10-19T14:43:07.715Z,50.00
2018-10-19T14:45:39.376Z,50.60
2018-10-19T14:48:11.279Z,51.40
2018-10-19T14:50:43.093Z,51.70
2018-10-19T14:53:15.041Z,52.10
2018-10-19T14:55:46.829Z,52.50
2018-10-19T14:58:18.494Z,53.00
2018-10-19T15:00:50.326Z,53.50
2018-10-19T15:03:22.191Z,53.80
2018-10-19T15:05:53.981Z,54.30
2018-10-19T15:08:25.738Z,54.60
2018-10-19T15:10:57.738Z,54.90
2018-10-19T15:13:29.344Z,55.00
2018-10-19T15:16:01.198Z,55.10
2018-10-19T15:18:32.918Z,55.20
2018-10-19T15:21:04.678Z,55.40
2018-10-19T15:23:36.575Z,55.50
2018-10-19T15:26:08.253Z,55.90
2018-10-19T15:28:40.010Z,56.10
2018-10-19T15:31:11.879Z,56.80
2018-10-19T15:33:43.536Z,56.90
2018-10-19T15:36:15.263Z,57.90
2018-10-19T15:38:47.057Z,57.80
2018-10-19T15:41:19.025Z,57.80
2018-10-19T15:43:50.877Z,58.20
2018-10-19T15:46:22.572Z,58.40
2018-10-19T15:48:54.402Z,58.80
2018-10-19T15:51:26.138Z,59.10
2018-10-19T15:53:57.809Z,59.60
2018-10-19T15:56:29.560Z,59.80
2018-10-19T15:59:01.429Z,60.10
2018-10-19T16:01:33.180Z,60.20
2018-10-19T16:04:05.102Z,61.10
2018-10-19T16:06:36.877Z,60.70
2018-10-19T16:09:12.467Z,60.80
2018-10-19T16:11:44.904Z,61.30
2018-10-19T16:14:16.669Z,61.40
2018-10-19T16:16:48.455Z,61.70
2018-10-19T16:19:20.197Z,62.20
2018-10-19T16:21:51.950Z,62.50
2018-10-19T16:24:23.731Z,62.10
2018-10-19T16:26:55.503Z,62.00
2018-10-19T16:29:27.415Z,62.30
2018-10-19T16:31:59.282Z,62.60
2018-10-19T16:34:30.944Z,63.00
2018-10-19T16:37:02.633Z,63.60
2018-10-19T16:39:34.464Z,64.10
2018-10-19T16:42:06.391Z,64.60
2018-10-19T16:44:38.104Z,65.10
2018-10-19T16:47:10.047Z,65.30
2018-10-19T16:49:41.674Z,66.00
2018-10-19T16:52:13.543Z,66.00
2018-10-19T16:54:45.349Z,67.20
2018-10-19T16:57:17.220Z,67.60
2018-10-19T16:59:48.965Z,68.30
2018-10-19T17:02:20.831Z,68.20
2018-10-19T17:04:52.816Z,68.50
2018-10-19T17:07:24.340Z,68.70
2018-10-19T17:09:56.110Z,68.90
2018-10-19T17:12:27.872Z,69.20
2018-10-19T17:14:59.768Z,69.30
2018-10-19T17:17:31.590Z,69.50
2018-10-19T17:20:03.430Z,69.60
2018-10-19T17:22:35.202Z,70.10
2018-10-19T17:25:09.162Z,70.20
2018-10-19T17:27:41.220Z,69.70
2018-10-19T17:30:14.517Z,69.50
2018-10-19T17:32:46.318Z,69.10
2018-10-19T17:35:18.096Z,68.90
2018-10-19T17:37:49.834Z,69.80
2018-10-19T17:40:21.499Z,70.00
2018-10-19T17:42:53.234Z,71.40
2018-10-19T17:45:25.111Z,71.50
2018-10-19T17:47:56.919Z,72.80
2018-10-19T17:50:28.720Z,71.50
2018-10-19T17:53:00.669Z,71.10
2018-10-19T17:55:32.364Z,71.20
2018-10-19T17:58:04.135Z,73.50
2018-10-19T18:00:35.976Z,74.70
2018-10-19T18:03:07.857Z,75.00
2018-10-19T18:05:39.715Z,74.90
2018-10-19T18:08:11.479Z,74.60
2018-10-19T18:10:43.236Z,75.30
2018-10-19T18:13:14.901Z,74.80
2018-10-19T18:15:46.698Z,75.20
2018-10-19T18:18:18.515Z,75.40
2018-10-19T18:20:50.280Z,75.10
2018-10-19T18:23:22.428Z,75.10
2018-10-19T18:25:54.029Z,75.20
2018-10-19T18:28:25.961Z,75.20
2018-10-19T18:30:57.889Z,75.30
2018-10-19T18:33:29.683Z,75.50
2018-10-19T18:36:01.535Z,75.30
2018-10-19T18:38:33.720Z,75.00
2018-10-19T18:41:05.783Z,74.30
2018-10-19T18:43:37.640Z,74.10
2018-10-19T18:46:09.489Z,76.00
2018-10-19T18:48:41.347Z,77.30
2018-10-19T18:51:13.016Z,77.70
2018-10-19T18:53:44.761Z,77.70
2018-10-19T18:56:16.562Z,76.90
2018-10-19T18:58:48.270Z,76.30
2018-10-19T19:01:20.034Z,76.90
2018-10-19T19:03:52.001Z,76.10
2018-10-19T19:06:23.787Z,76.50
2018-10-19T19:08:55.532Z,76.60
2018-10-19T19:11:27.293Z,76.20
2018-10-19T19:13:59.170Z,76.30
2018-10-19T19:16:31.702Z,77.30
2018-10-19T19:19:03.492Z,78.00
2018-10-19T19:21:35.312Z,78.60
2018-10-19T19:24:12.270Z,79.00
2018-10-19T19:26:43.975Z,78.50
2018-10-19T19:29:15.910Z,78.10
2018-10-19T19:31:47.683Z,78.00
2018-10-19T19:34:22.350Z,78.40
2018-10-19T19:36:54.096Z,78.90
2018-10-19T19:39:25.843Z,78.10
2018-10-19T19:42:02.532Z,78.00
2018-10-19T19:44:34.295Z,78.50
2018-10-19T19:47:06.544Z,79.10
2018-10-19T19:49:40.632Z,79.40
2018-10-19T19:52:12.417Z,79.10
2018-10-19T19:54:44.176Z,79.00
2018-10-19T19:57:15.886Z,79.20
2018-10-19T19:59:47.682Z,79.40
2018-10-19T20:02:19.480Z,80.10
2018-10-19T20:04:51.438Z,80.10
2018-10-19T20:07:23.193Z,79.90
2018-10-19T20:09:55.029Z,80.10
2018-10-19T20:12:26.811Z,79.50
2018-10-19T20:14:58.676Z,80.20
2018-10-19T20:17:30.329Z,80.90
2018-10-19T20:20:02.171Z,81.00
2018-10-19T20:22:33.823Z,81.20
2018-10-19T20:25:06.442Z,81.50
2018-10-19T20:27:39.008Z,80.90
2018-10-19T20:30:13.147Z,80.40
2018-10-19T20:32:45.085Z,80.00
2018-10-19T20:35:17.040Z,79.70
2018-10-19T20:37:48.913Z,79.80
2018-10-19T20:40:20.660Z,80.10
2018-10-19T20:42:52.605Z,80.10
2018-10-19T20:45:24.397Z,80.30
2018-10-19T20:47:56.254Z,80.40
2018-10-19T20:50:27.984Z,80.50
2018-10-19T20:52:59.792Z,80.40
2018-10-19T20:55:31.554Z,80.30
2018-10-19T20:58:03.286Z,80.30
2018-10-19T21:00:35.056Z,79.40
2018-10-19T21:03:06.984Z,79.40
2018-10-19T21:05:38.773Z,79.50
2018-10-19T21:08:10.759Z,79.60
2018-10-19T21:10:42.775Z,80.00
2018-10-19T21:13:14.576Z,80.00
2018-10-19T21:15:46.420Z,80.20
2018-10-19T21:18:18.276Z,80.30
2018-10-19T21:20:50.044Z,80.10
2018-10-19T21:23:21.696Z,79.80
2018-10-19T21:25:53.561Z,80.90
2018-10-19T21:28:25.524Z,80.60
2018-10-19T21:30:57.282Z,80.30
2018-10-19T21:33:28.934Z,82.00
2018-10-19T21:36:01.102Z,82.20
2018-10-19T21:38:32.759Z,82.20
2018-10-19T21:41:04.433Z,81.70
2018-10-19T21:43:36.281Z,81.80
2018-10-19T21:46:08.142Z,81.00
2018-10-19T21:48:39.994Z,80.70
2018-10-19T21:51:11.731Z,81.00
2018-10-19T21:53:43.520Z,81.20
2018-10-19T21:56:15.326Z,81.30
2018-10-19T21:58:47.223Z,82.70
2018-10-19T22:01:19.108Z,81.50
2018-10-19T22:03:50.965Z,81.30
2018-10-19T22:06:22.731Z,81.40
2018-10-19T22:08:54.553Z,82.70
2018-10-19T22:11:26.347Z,82.80
2018-10-19T22:13:58.002Z,81.70
2018-10-19T22:16:29.935Z,82.50
2018-10-19T22:19:01.798Z,82.30
2018-10-19T22:21:33.563Z,82.20
2018-10-19T22:24:05.332Z,82.00
2018-10-19T22:26:37.104Z,82.90
2018-10-19T22:29:09.128Z,82.30
2018-10-19T22:31:40.919Z,82.60
2018-10-19T22:34:12.655Z,82.70
2018-10-19T22:36:44.328Z,83.00
2018-10-19T22:39:15.984Z,82.50
2018-10-19T22:41:47.759Z,82.00
2018-10-19T22:44:19.521Z,82.20
2018-10-19T22:46:51.384Z,83.00
2018-10-19T22:49:23.057Z,83.80
2018-10-19T22:51:54.872Z,84.50
2018-10-19T22:54:26.546Z,84.90
2018-10-19T22:56:58.392Z,85.50
2018-10-19T22:59:30.278Z,85.50
2018-10-19T23:02:01.919Z,85.90
2018-10-19T23:04:33.783Z,85.90
2018-10-19T23:07:05.921Z,86.10
2018-10-19T23:09:38.146Z,85.50
2018-10-19T23:12:09.884Z,85.90
2018-10-19T23:14:41.739Z,85.10
2018-10-19T23:17:13.592Z,84.80
2018-10-19T23:19:45.459Z,84.50
2018-10-19T23:22:17.238Z,84.30
2018-10-19T23:24:48.988Z,83.90
2018-10-19T23:27:20.729Z,83.90
2018-10-19T23:29:52.615Z,83.00
2018-10-19T23:32:24.362Z,83.40
2018-10-19T23:34:56.339Z,84.80
2018-10-19T23:37:28.310Z,86.00
2018-10-19T23:40:00.043Z,86.20
2018-10-19T23:42:31.703Z,85.70
2018-10-19T23:45:03.477Z,81.40
2018-10-19T23:47:35.217Z,78.50
2018-10-19T23:50:07.575Z,79.80
2018-10-19T23:52:39.398Z,81.30
2018-10-19T23:55:11.409Z,81.30
2018-10-19T23:57:43.064Z,81.00
